Terminal Aerodrome Forecast
Issued by NWS

Home | Current Version | Previous Version | Text Only | Print | Product List | Glossary Off
Versions: 1 2 3 4 5 6 7 8 9 10 11 12 13 14 15

000
FTUS43 KICT 161100
TAFCNU
TAF
KCNU 161125Z 1612/1712 16013KT P6SM BKN250 WS020/18040KT
     FM161500 19026G36KT P6SM SCT250
     FM162200 19019G28KT P6SM BKN250
     FM170100 17013KT P6SM BKN250
     FM170700 VRB04KT P6SM OVC150
     FM171100 02012KT P6SM OVC120=

USA.gov is the U.S. government's official web portal to all federal, state and local government web resources and services.